sensor_id;sensor_type;location;lat;lon;timestamp;pressure;altitude;pressure_sealevel;temperature;humidity
51829;BME280;37881;48.024;8.774;2024-02-26T00:02:07;92043.97;;;3.77;100.00
51829;BME280;37881;48.024;8.774;2024-02-26T00:04:34;92034.56;;;3.82;100.00
51829;BME280;37881;48.024;8.774;2024-02-26T00:07:01;92033.47;;;3.79;100.00
51829;BME280;37881;48.024;8.774;2024-02-26T00:09:28;92041.03;;;3.88;100.00
51829;BME280;37881;48.024;8.774;2024-02-26T00:11:54;92037.16;;;3.89;100.00
51829;BME280;37881;48.024;8.774;2024-02-26T00:14:22;92035.66;;;4.05;100.00
51829;BME280;37881;48.024;8.774;2024-02-26T00:16:48;92045.63;;;3.91;100.00
51829;BME280;37881;48.024;8.774;2024-02-26T00:19:15;92051.06;;;3.71;100.00
51829;BME280;37881;48.024;8.774;2024-02-26T00:21:42;92031.66;;;3.73;100.00
51829;BME280;37881;48.024;8.774;2024-02-26T00:24:09;92023.38;;;3.80;100.00
51829;BME280;37881;48.024;8.774;2024-02-26T00:26:36;92031.09;;;3.82;100.00
51829;BME280;37881;48.024;8.774;2024-02-26T00:29:03;92027.75;;;3.94;100.00
51829;BME280;37881;48.024;8.774;2024-02-26T00:31:29;92033.75;;;3.85;100.00
51829;BME280;37881;48.024;8.774;2024-02-26T00:33:56;92016.53;;;3.92;100.00
51829;BME280;37881;48.024;8.774;2024-02-26T00:36:23;92029.47;;;4.04;100.00
51829;BME280;37881;48.024;8.774;2024-02-26T00:38:50;92027.13;;;3.86;100.00
51829;BME280;37881;48.024;8.774;2024-02-26T00:41:20;92022.31;;;3.74;100.00
51829;BME280;37881;48.024;8.774;2024-02-26T00:43:47;92012.66;;;3.93;100.00
51829;BME280;37881;48.024;8.774;2024-02-26T00:46:14;92014.72;;;4.05;100.00
51829;BME280;37881;48.024;8.774;2024-02-26T00:48:40;92023.91;;;3.91;100.00
51829;BME280;37881;48.024;8.774;2024-02-26T00:51:07;92011.31;;;4.01;100.00
51829;BME280;37881;48.024;8.774;2024-02-26T00:53:35;92020.06;;;4.09;100.00
51829;BME280;37881;48.024;8.774;2024-02-26T00:56:01;92016.69;;;4.21;100.00
51829;BME280;37881;48.024;8.774;2024-02-26T00:58:28;92018.84;;;3.93;100.00
51829;BME280;37881;48.024;8.774;2024-02-26T01:00:55;92016.91;;;4.10;100.00
51829;BME280;37881;48.024;8.774;2024-02-26T01:03:22;92022.09;;;4.05;100.00
51829;BME280;37881;48.024;8.774;2024-02-26T01:05:49;92013.09;;;4.08;100.00
51829;BME280;37881;48.024;8.774;2024-02-26T01:08:16;92015.06;;;4.07;100.00
51829;BME280;37881;48.024;8.774;2024-02-26T01:10:42;92016.41;;;3.99;100.00
51829;BME280;37881;48.024;8.774;2024-02-26T01:13:09;92015.31;;;3.96;100.00
51829;BME280;37881;48.024;8.774;2024-02-26T01:15:36;92007.00;;;4.04;100.00
51829;BME280;37881;48.024;8.774;2024-02-26T01:18:03;92006.84;;;4.11;100.00
51829;BME280;37881;48.024;8.774;2024-02-26T01:20:29;92013.31;;;4.17;100.00
51829;BME280;37881;48.024;8.774;2024-02-26T01:22:56;92010.59;;;4.17;100.00
51829;BME280;37881;48.024;8.774;2024-02-26T01:25:23;92024.66;;;4.12;100.00
51829;BME280;37881;48.024;8.774;2024-02-26T01:27:50;92031.66;;;3.93;100.00
51829;BME280;37881;48.024;8.774;2024-02-26T01:30:16;92047.59;;;3.91;100.00
51829;BME280;37881;48.024;8.774;2024-02-26T01:32:43;92050.22;;;3.94;100.00
51829;BME280;37881;48.024;8.774;2024-02-26T01:35:10;92043.25;;;3.93;100.00
51829;BME280;37881;48.024;8.774;2024-02-26T01:37:38;92039.84;;;3.89;100.00
51829;BME280;37881;48.024;8.774;2024-02-26T01:40:06;92050.31;;;3.91;100.00
51829;BME280;37881;48.024;8.774;2024-02-26T01:42:33;92046.81;;;3.90;100.00
51829;BME280;37881;48.024;8.774;2024-02-26T01:45:00;92041.94;;;4.02;100.00
51829;BME280;37881;48.024;8.774;2024-02-26T01:47:28;92051.88;;;4.08;100.00
51829;BME280;37881;48.024;8.774;2024-02-26T01:49:55;92046.72;;;4.14;100.00
51829;BME280;37881;48.024;8.774;2024-02-26T01:52:22;92054.94;;;3.90;100.00
51829;BME280;37881;48.024;8.774;2024-02-26T01:54:50;92064.34;;;3.86;100.00
51829;BME280;37881;48.024;8.774;2024-02-26T01:57:17;92053.91;;;3.64;100.00
51829;BME280;37881;48.024;8.774;2024-02-26T01:59:45;92052.16;;;3.74;100.00
51829;BME280;37881;48.024;8.774;2024-02-26T02:02:12;92035.06;;;3.57;100.00
51829;BME280;37881;48.024;8.774;2024-02-26T02:04:39;92029.50;;;3.64;100.00
51829;BME280;37881;48.024;8.774;2024-02-26T02:07:06;92031.72;;;3.69;100.00
51829;BME280;37881;48.024;8.774;2024-02-26T02:09:34;92029.06;;;3.86;100.00
51829;BME280;37881;48.024;8.774;2024-02-26T02:12:01;92021.25;;;4.08;100.00
51829;BME280;37881;48.024;8.774;2024-02-26T02:14:28;92018.63;;;3.84;100.00
51829;BME280;37881;48.024;8.774;2024-02-26T02:16:55;92004.47;;;3.76;100.00
51829;BME280;37881;48.024;8.774;2024-02-26T02:19:21;91991.44;;;3.88;100.00
51829;BME280;37881;48.024;8.774;2024-02-26T02:21:48;91977.53;;;3.66;100.00
51829;BME280;37881;48.024;8.774;2024-02-26T02:24:15;91969.91;;;3.60;100.00
51829;BME280;37881;48.024;8.774;2024-02-26T02:26:42;91965.88;;;3.69;100.00
51829;BME280;37881;48.024;8.774;2024-02-26T02:29:09;91964.63;;;3.90;100.00
51829;BME280;37881;48.024;8.774;2024-02-26T02:31:36;91975.75;;;3.95;100.00
51829;BME280;37881;48.024;8.774;2024-02-26T02:34:03;91974.69;;;3.73;100.00
51829;BME280;37881;48.024;8.774;2024-02-26T02:36:30;91980.97;;;3.50;100.00
51829;BME280;37881;48.024;8.774;2024-02-26T02:38:57;91996.81;;;3.51;100.00
51829;BME280;37881;48.024;8.774;2024-02-26T02:41:24;92010.44;;;3.28;100.00
51829;BME280;37881;48.024;8.774;2024-02-26T02:43:50;92014.25;;;3.10;100.00
51829;BME280;37881;48.024;8.774;2024-02-26T02:46:17;92021.41;;;3.20;100.00
51829;BME280;37881;48.024;8.774;2024-02-26T02:48:44;92018.72;;;3.20;100.00
51829;BME280;37881;48.024;8.774;2024-02-26T02:51:11;92019.47;;;3.21;100.00
51829;BME280;37881;48.024;8.774;2024-02-26T02:53:38;92020.16;;;3.25;100.00
51829;BME280;37881;48.024;8.774;2024-02-26T02:56:05;92029.91;;;3.23;100.00
51829;BME280;37881;48.024;8.774;2024-02-26T02:58:32;92013.47;;;3.10;100.00
51829;BME280;37881;48.024;8.774;2024-02-26T03:00:59;92013.28;;;3.20;100.00
51829;BME280;37881;48.024;8.774;2024-02-26T03:03:27;92019.19;;;3.35;100.00
51829;BME280;37881;48.024;8.774;2024-02-26T03:05:55;92023.88;;;3.35;100.00
51829;BME280;37881;48.024;8.774;2024-02-26T03:08:23;92023.53;;;3.53;100.00
51829;BME280;37881;48.024;8.774;2024-02-26T03:10:52;92017.75;;;3.71;100.00
51829;BME280;37881;48.024;8.774;2024-02-26T03:13:19;92023.31;;;3.64;100.00
51829;BME280;37881;48.024;8.774;2024-02-26T03:15:45;92026.53;;;3.58;100.00
51829;BME280;37881;48.024;8.774;2024-02-26T03:18:12;92025.66;;;3.42;100.00
51829;BME280;37881;48.024;8.774;2024-02-26T03:20:39;92023.88;;;3.55;100.00
51829;BME280;37881;48.024;8.774;2024-02-26T03:23:06;92026.19;;;3.56;100.00
51829;BME280;37881;48.024;8.774;2024-02-26T03:25:32;92021.69;;;3.66;100.00
51829;BME280;37881;48.024;8.774;2024-02-26T03:27:59;92023.81;;;3.58;100.00
51829;BME280;37881;48.024;8.774;2024-02-26T03:30:26;92035.84;;;3.57;100.00
51829;BME280;37881;48.024;8.774;2024-02-26T03:32:53;92033.41;;;3.43;100.00
51829;BME280;37881;48.024;8.774;2024-02-26T03:35:19;92022.91;;;3.45;100.00
51829;BME280;37881;48.024;8.774;2024-02-26T03:37:46;92008.78;;;3.54;100.00
51829;BME280;37881;48.024;8.774;2024-02-26T03:40:14;91984.00;;;3.52;100.00
51829;BME280;37881;48.024;8.774;2024-02-26T03:42:41;91963.88;;;3.33;100.00
51829;BME280;37881;48.024;8.774;2024-02-26T03:45:08;91963.00;;;3.56;100.00
51829;BME280;37881;48.024;8.774;2024-02-26T03:47:37;91959.41;;;3.43;100.00
51829;BME280;37881;48.024;8.774;2024-02-26T03:50:06;91960.47;;;3.49;100.00
51829;BME280;37881;48.024;8.774;2024-02-26T03:52:33;91960.31;;;3.36;100.00
51829;BME280;37881;48.024;8.774;2024-02-26T03:55:00;91966.75;;;3.62;100.00
51829;BME280;37881;48.024;8.774;2024-02-26T03:57:27;91981.47;;;3.45;100.00
51829;BME280;37881;48.024;8.774;2024-02-26T03:59:54;91989.19;;;3.26;100.00
51829;BME280;37881;48.024;8.774;2024-02-26T04:02:21;91977.28;;;3.40;100.00
51829;BME280;37881;48.024;8.774;2024-02-26T04:04:49;91974.66;;;3.56;100.00
51829;BME280;37881;48.024;8.774;2024-02-26T04:07:16;91982.09;;;3.52;100.00
51829;BME280;37881;48.024;8.774;2024-02-26T04:09:44;91989.66;;;3.21;100.00
51829;BME280;37881;48.024;8.774;2024-02-26T04:12:11;91990.69;;;3.27;100.00
51829;BME280;37881;48.024;8.774;2024-02-26T04:14:37;91995.09;;;3.41;100.00
51829;BME280;37881;48.024;8.774;2024-02-26T04:17:04;91988.56;;;3.58;100.00
51829;BME280;37881;48.024;8.774;2024-02-26T04:19:31;91988.03;;;3.64;100.00
51829;BME280;37881;48.024;8.774;2024-02-26T04:21:59;91979.25;;;3.76;100.00
51829;BME280;37881;48.024;8.774;2024-02-26T04:24:26;91983.09;;;3.78;100.00
51829;BME280;37881;48.024;8.774;2024-02-26T04:26:53;91983.44;;;3.80;100.00
51829;BME280;37881;48.024;8.774;2024-02-26T04:29:19;91984.22;;;3.81;100.00
51829;BME280;37881;48.024;8.774;2024-02-26T04:31:46;91982.56;;;3.67;100.00
51829;BME280;37881;48.024;8.774;2024-02-26T04:34:14;91992.69;;;3.83;100.00
51829;BME280;37881;48.024;8.774;2024-02-26T04:36:41;91985.53;;;3.73;100.00
51829;BME280;37881;48.024;8.774;2024-02-26T04:39:09;92003.91;;;3.65;100.00
51829;BME280;37881;48.024;8.774;2024-02-26T04:41:36;92015.59;;;3.42;100.00
51829;BME280;37881;48.024;8.774;2024-02-26T04:44:03;92018.44;;;3.35;100.00
51829;BME280;37881;48.024;8.774;2024-02-26T04:46:30;92029.41;;;3.48;100.00
51829;BME280;37881;48.024;8.774;2024-02-26T04:48:57;92018.28;;;3.62;100.00
51829;BME280;37881;48.024;8.774;2024-02-26T04:51:24;92024.16;;;3.40;100.00
51829;BME280;37881;48.024;8.774;2024-02-26T04:53:51;92029.88;;;3.46;100.00
51829;BME280;37881;48.024;8.774;2024-02-26T04:56:21;92024.28;;;3.53;100.00
51829;BME280;37881;48.024;8.774;2024-02-26T04:58:48;92033.06;;;3.61;100.00
51829;BME280;37881;48.024;8.774;2024-02-26T05:01:15;92025.75;;;3.58;100.00
51829;BME280;37881;48.024;8.774;2024-02-26T05:03:43;92010.09;;;3.66;100.00
51829;BME280;37881;48.024;8.774;2024-02-26T05:06:10;92033.97;;;3.74;100.00
51829;BME280;37881;48.024;8.774;2024-02-26T05:08:37;92040.00;;;3.62;100.00
51829;BME280;37881;48.024;8.774;2024-02-26T05:11:05;92047.25;;;3.69;100.00
51829;BME280;37881;48.024;8.774;2024-02-26T05:13:32;92045.16;;;3.76;100.00
51829;BME280;37881;48.024;8.774;2024-02-26T05:15:59;92051.47;;;3.70;100.00
51829;BME280;37881;48.024;8.774;2024-02-26T05:18:27;92055.56;;;3.58;100.00
51829;BME280;37881;48.024;8.774;2024-02-26T05:20:54;92056.56;;;3.68;100.00
51829;BME280;37881;48.024;8.774;2024-02-26T05:23:21;92057.13;;;3.59;100.00
51829;BME280;37881;48.024;8.774;2024-02-26T05:25:49;92063.03;;;3.74;100.00
51829;BME280;37881;48.024;8.774;2024-02-26T05:28:16;92071.16;;;3.74;100.00
51829;BME280;37881;48.024;8.774;2024-02-26T05:30:43;92072.91;;;3.84;100.00
51829;BME280;37881;48.024;8.774;2024-02-26T05:33:10;92083.41;;;3.82;100.00
51829;BME280;37881;48.024;8.774;2024-02-26T05:35:40;92083.00;;;3.84;100.00
51829;BME280;37881;48.024;8.774;2024-02-26T05:38:07;92085.22;;;3.69;100.00
51829;BME280;37881;48.024;8.774;2024-02-26T05:40:34;92078.94;;;3.72;100.00
51829;BME280;37881;48.024;8.774;2024-02-26T05:43:00;92086.13;;;3.82;100.00
51829;BME280;37881;48.024;8.774;2024-02-26T05:45:27;92085.22;;;3.69;100.00
51829;BME280;37881;48.024;8.774;2024-02-26T05:47:54;92080.28;;;3.84;100.00
51829;BME280;37881;48.024;8.774;2024-02-26T05:50:21;92080.69;;;3.82;100.00
51829;BME280;37881;48.024;8.774;2024-02-26T05:52:48;92070.63;;;3.83;100.00
51829;BME280;37881;48.024;8.774;2024-02-26T05:55:15;92067.63;;;3.77;100.00
51829;BME280;37881;48.024;8.774;2024-02-26T05:57:41;92060.94;;;3.62;100.00
51829;BME280;37881;48.024;8.774;2024-02-26T06:00:09;92071.09;;;3.77;100.00
51829;BME280;37881;48.024;8.774;2024-02-26T06:02:40;92079.59;;;3.79;100.00
51829;BME280;37881;48.024;8.774;2024-02-26T06:05:07;92070.34;;;3.77;100.00
51829;BME280;37881;48.024;8.774;2024-02-26T06:07:35;92083.66;;;3.48;100.00
51829;BME280;37881;48.024;8.774;2024-02-26T06:10:03;92081.19;;;3.77;100.00
51829;BME280;37881;48.024;8.774;2024-02-26T06:12:31;92088.78;;;3.86;100.00
51829;BME280;37881;48.024;8.774;2024-02-26T06:14:58;92076.81;;;3.83;100.00
51829;BME280;37881;48.024;8.774;2024-02-26T06:17:27;92082.44;;;3.72;100.00
51829;BME280;37881;48.024;8.774;2024-02-26T06:19:54;92094.81;;;3.53;100.00
51829;BME280;37881;48.024;8.774;2024-02-26T06:22:21;92094.69;;;3.60;100.00
51829;BME280;37881;48.024;8.774;2024-02-26T06:24:48;92091.75;;;3.71;100.00
51829;BME280;37881;48.024;8.774;2024-02-26T06:27:15;92099.28;;;3.84;100.00
51829;BME280;37881;48.024;8.774;2024-02-26T06:29:41;92097.19;;;3.91;100.00
51829;BME280;37881;48.024;8.774;2024-02-26T06:32:08;92105.81;;;3.86;100.00
51829;BME280;37881;48.024;8.774;2024-02-26T06:34:35;92097.66;;;3.86;100.00
51829;BME280;37881;48.024;8.774;2024-02-26T06:37:05;92103.09;;;3.86;100.00
51829;BME280;37881;48.024;8.774;2024-02-26T06:39:32;92106.94;;;4.09;100.00
51829;BME280;37881;48.024;8.774;2024-02-26T06:41:58;92115.09;;;4.09;100.00
51829;BME280;37881;48.024;8.774;2024-02-26T06:44:28;92125.94;;;4.09;100.00
51829;BME280;37881;48.024;8.774;2024-02-26T06:47:01;92126.19;;;4.14;100.00
51829;BME280;37881;48.024;8.774;2024-02-26T06:49:28;92132.59;;;4.24;100.00
51829;BME280;37881;48.024;8.774;2024-02-26T06:51:55;92124.69;;;4.13;100.00
51829;BME280;37881;48.024;8.774;2024-02-26T06:54:22;92127.25;;;4.20;100.00
51829;BME280;37881;48.024;8.774;2024-02-26T06:56:49;92137.97;;;4.28;100.00
51829;BME280;37881;48.024;8.774;2024-02-26T06:59:15;92129.53;;;4.22;100.00
51829;BME280;37881;48.024;8.774;2024-02-26T07:01:42;92128.31;;;4.27;100.00
51829;BME280;37881;48.024;8.774;2024-02-26T07:04:09;92124.66;;;4.33;100.00
51829;BME280;37881;48.024;8.774;2024-02-26T07:06:37;92135.88;;;4.35;100.00
51829;BME280;37881;48.024;8.774;2024-02-26T07:09:04;92125.19;;;4.45;100.00
51829;BME280;37881;48.024;8.774;2024-02-26T07:11:31;92127.59;;;3.83;100.00
51829;BME280;37881;48.024;8.774;2024-02-26T07:13:58;92121.69;;;4.08;100.00
51829;BME280;37881;48.024;8.774;2024-02-26T07:16:24;92118.34;;;4.00;100.00
51829;BME280;37881;48.024;8.774;2024-02-26T07:18:51;92123.69;;;4.24;100.00
51829;BME280;37881;48.024;8.774;2024-02-26T07:21:18;92122.78;;;4.30;100.00
51829;BME280;37881;48.024;8.774;2024-02-26T07:23:45;92114.50;;;4.37;100.00
51829;BME280;37881;48.024;8.774;2024-02-26T07:26:12;92108.16;;;4.04;100.00
51829;BME280;37881;48.024;8.774;2024-02-26T07:28:38;92107.81;;;3.82;100.00
51829;BME280;37881;48.024;8.774;2024-02-26T07:31:05;92107.00;;;3.85;100.00
51829;BME280;37881;48.024;8.774;2024-02-26T07:33:32;92105.47;;;4.04;100.00
51829;BME280;37881;48.024;8.774;2024-02-26T07:35:59;92091.75;;;4.48;100.00
51829;BME280;37881;48.024;8.774;2024-02-26T07:38:26;92089.06;;;4.64;100.00
51829;BME280;37881;48.024;8.774;2024-02-26T07:41:08;92086.88;;;4.59;100.00
51829;BME280;37881;48.024;8.774;2024-02-26T07:43:35;92085.75;;;4.56;100.00
51829;BME280;37881;48.024;8.774;2024-02-26T07:46:02;92087.03;;;4.52;100.00
51829;BME280;37881;48.024;8.774;2024-02-26T07:48:28;92082.38;;;4.69;100.00
51829;BME280;37881;48.024;8.774;2024-02-26T07:50:55;92081.13;;;4.90;100.00
51829;BME280;37881;48.024;8.774;2024-02-26T07:53:22;92097.44;;;4.90;100.00
51829;BME280;37881;48.024;8.774;2024-02-26T07:55:49;92086.41;;;5.13;100.00
51829;BME280;37881;48.024;8.774;2024-02-26T07:58:16;92088.25;;;5.16;100.00
51829;BME280;37881;48.024;8.774;2024-02-26T08:00:42;92086.03;;;5.28;100.00
51829;BME280;37881;48.024;8.774;2024-02-26T08:03:10;92095.03;;;5.25;100.00
51829;BME280;37881;48.024;8.774;2024-02-26T08:05:37;92089.34;;;5.35;100.00
51829;BME280;37881;48.024;8.774;2024-02-26T08:08:06;92079.41;;;5.29;100.00
51829;BME280;37881;48.024;8.774;2024-02-26T08:10:34;92086.38;;;5.30;100.00
51829;BME280;37881;48.024;8.774;2024-02-26T08:13:01;92086.13;;;5.70;100.00
51829;BME280;37881;48.024;8.774;2024-02-26T08:15:32;92099.94;;;5.92;100.00
51829;BME280;37881;48.024;8.774;2024-02-26T08:18:01;92106.47;;;5.94;100.00
51829;BME280;37881;48.024;8.774;2024-02-26T08:20:31;92096.56;;;6.17;100.00
51829;BME280;37881;48.024;8.774;2024-02-26T08:22:58;92096.47;;;6.33;100.00
51829;BME280;37881;48.024;8.774;2024-02-26T08:25:25;92096.19;;;6.44;100.00
51829;BME280;37881;48.024;8.774;2024-02-26T08:27:52;92100.66;;;6.51;100.00
51829;BME280;37881;48.024;8.774;2024-02-26T08:30:19;92111.38;;;6.16;100.00
51829;BME280;37881;48.024;8.774;2024-02-26T08:32:47;92117.19;;;6.02;100.00
51829;BME280;37881;48.024;8.774;2024-02-26T08:35:18;92118.34;;;5.71;100.00
51829;BME280;37881;48.024;8.774;2024-02-26T08:37:45;92122.75;;;5.98;100.00
51829;BME280;37881;48.024;8.774;2024-02-26T08:40:13;92122.97;;;5.58;100.00
51829;BME280;37881;48.024;8.774;2024-02-26T08:42:40;92129.34;;;5.68;100.00
51829;BME280;37881;48.024;8.774;2024-02-26T08:45:08;92133.91;;;5.71;100.00
51829;BME280;37881;48.024;8.774;2024-02-26T08:47:35;92138.16;;;5.88;100.00
51829;BME280;37881;48.024;8.774;2024-02-26T08:50:02;92128.94;;;6.83;100.00
51829;BME280;37881;48.024;8.774;2024-02-26T08:52:29;92127.88;;;11.24;100.00
51829;BME280;37881;48.024;8.774;2024-02-26T08:54:55;92125.16;;;15.27;74.75
51829;BME280;37881;48.024;8.774;2024-02-26T08:57:23;92130.22;;;14.82;65.91
51829;BME280;37881;48.024;8.774;2024-02-26T08:59:50;92127.91;;;14.75;64.33
51829;BME280;37881;48.024;8.774;2024-02-26T09:02:17;92130.81;;;16.19;60.99
51829;BME280;37881;48.024;8.774;2024-02-26T09:04:44;92124.09;;;19.74;46.66
51829;BME280;37881;48.024;8.774;2024-02-26T09:07:10;92114.50;;;17.83;45.84
51829;BME280;37881;48.024;8.774;2024-02-26T09:09:37;92123.31;;;18.26;46.40
51829;BME280;37881;48.024;8.774;2024-02-26T09:12:04;92119.75;;;20.28;41.90
51829;BME280;37881;48.024;8.774;2024-02-26T09:14:31;92125.91;;;22.83;38.60
51829;BME280;37881;48.024;8.774;2024-02-26T09:16:58;92124.84;;;22.86;34.50
51829;BME280;37881;48.024;8.774;2024-02-26T09:19:26;92127.28;;;22.89;35.22
51829;BME280;37881;48.024;8.774;2024-02-26T09:21:54;92117.38;;;23.15;33.08
51829;BME280;37881;48.024;8.774;2024-02-26T09:24:24;92125.16;;;20.20;37.62
51829;BME280;37881;48.024;8.774;2024-02-26T09:26:52;92126.41;;;23.21;34.19
51829;BME280;37881;48.024;8.774;2024-02-26T09:29:19;92123.88;;;22.30;32.85
51829;BME280;37881;48.024;8.774;2024-02-26T09:31:45;92124.88;;;21.49;34.40
51829;BME280;37881;48.024;8.774;2024-02-26T09:34:14;92128.72;;;23.78;31.28
51829;BME280;37881;48.024;8.774;2024-02-26T09:36:41;92122.47;;;23.51;30.19
51829;BME280;37881;48.024;8.774;2024-02-26T09:39:08;92125.28;;;22.50;32.66
51829;BME280;37881;48.024;8.774;2024-02-26T09:41:38;92128.81;;;20.83;34.30
51829;BME280;37881;48.024;8.774;2024-02-26T09:44:05;92129.63;;;20.78;34.63
51829;BME280;37881;48.024;8.774;2024-02-26T09:46:33;92125.81;;;19.41;36.67
51829;BME280;37881;48.024;8.774;2024-02-26T09:49:00;92123.34;;;18.90;37.29
51829;BME280;37881;48.024;8.774;2024-02-26T09:51:27;92114.50;;;17.83;38.70
51829;BME280;37881;48.024;8.774;2024-02-26T09:53:56;92108.22;;;17.26;39.88
51829;BME280;37881;48.024;8.774;2024-02-26T09:56:25;92113.28;;;17.10;41.09
51829;BME280;37881;48.024;8.774;2024-02-26T09:58:54;92105.19;;;16.24;42.48
51829;BME280;37881;48.024;8.774;2024-02-26T10:01:22;92115.38;;;15.64;44.71
51829;BME280;37881;48.024;8.774;2024-02-26T10:03:57;92129.22;;;16.07;44.89
51829;BME280;37881;48.024;8.774;2024-02-26T10:06:26;92127.22;;;16.07;44.80
51829;BME280;37881;48.024;8.774;2024-02-26T10:08:55;92128.38;;;17.09;43.73
51829;BME280;37881;48.024;8.774;2024-02-26T10:11:25;92134.00;;;16.06;46.22
51829;BME280;37881;48.024;8.774;2024-02-26T10:13:53;92135.50;;;14.39;50.88
51829;BME280;37881;48.024;8.774;2024-02-26T10:16:20;92144.59;;;14.04;53.11
51829;BME280;37881;48.024;8.774;2024-02-26T10:18:51;92146.66;;;13.89;52.90
51829;BME280;37881;48.024;8.774;2024-02-26T10:21:26;92133.78;;;14.42;52.02
51829;BME280;37881;48.024;8.774;2024-02-26T10:23:53;92138.75;;;13.96;52.83
51829;BME280;37881;48.024;8.774;2024-02-26T10:26:21;92129.63;;;13.25;54.18
51829;BME280;37881;48.024;8.774;2024-02-26T10:28:48;92130.28;;;12.75;55.87
51829;BME280;37881;48.024;8.774;2024-02-26T10:31:20;92124.72;;;13.44;54.42
51829;BME280;37881;48.024;8.774;2024-02-26T10:33:48;92130.22;;;13.79;54.53
51829;BME280;37881;48.024;8.774;2024-02-26T10:36:16;92124.31;;;14.48;53.11
51829;BME280;37881;48.024;8.774;2024-02-26T10:38:43;92132.34;;;15.19;49.99
51829;BME280;37881;48.024;8.774;2024-02-26T10:41:13;92134.22;;;15.65;48.90
51829;BME280;37881;48.024;8.774;2024-02-26T10:43:42;92140.63;;;16.20;47.83
51829;BME280;37881;48.024;8.774;2024-02-26T10:46:10;92142.34;;;16.12;46.27
51829;BME280;37881;48.024;8.774;2024-02-26T10:48:36;92154.63;;;15.10;49.72
51829;BME280;37881;48.024;8.774;2024-02-26T10:51:04;92155.47;;;15.48;48.44
51829;BME280;37881;48.024;8.774;2024-02-26T10:53:33;92158.03;;;16.26;46.79
51829;BME280;37881;48.024;8.774;2024-02-26T10:56:03;92157.44;;;16.11;46.70
51829;BME280;37881;48.024;8.774;2024-02-26T10:58:32;92148.28;;;15.62;46.70
51829;BME280;37881;48.024;8.774;2024-02-26T11:00:59;92153.03;;;15.29;46.56
51829;BME280;37881;48.024;8.774;2024-02-26T11:03:28;92154.28;;;15.02;47.73
51829;BME280;37881;48.024;8.774;2024-02-26T11:06:00;92160.19;;;14.89;47.73
51829;BME280;37881;48.024;8.774;2024-02-26T11:08:28;92160.13;;;14.22;49.21
51829;BME280;37881;48.024;8.774;2024-02-26T11:10:57;92164.84;;;14.57;49.03
51829;BME280;37881;48.024;8.774;2024-02-26T11:13:27;92167.53;;;14.51;49.17
51829;BME280;37881;48.024;8.774;2024-02-26T11:15:58;92168.34;;;14.37;46.11
51829;BME280;37881;48.024;8.774;2024-02-26T11:18:27;92164.66;;;13.69;48.31
51829;BME280;37881;48.024;8.774;2024-02-26T11:20:54;92173.91;;;14.02;47.17
51829;BME280;37881;48.024;8.774;2024-02-26T11:23:24;92181.09;;;13.64;48.26
51829;BME280;37881;48.024;8.774;2024-02-26T11:25:52;92184.22;;;12.97;49.18
51829;BME280;37881;48.024;8.774;2024-02-26T11:28:22;92184.19;;;14.42;46.13
51829;BME280;37881;48.024;8.774;2024-02-26T11:30:51;92184.19;;;15.30;44.98
51829;BME280;37881;48.024;8.774;2024-02-26T11:33:19;92178.94;;;15.06;43.76
51829;BME280;37881;48.024;8.774;2024-02-26T11:35:47;92179.50;;;14.63;44.72
51829;BME280;37881;48.024;8.774;2024-02-26T11:38:20;92183.28;;;13.74;46.91
51829;BME280;37881;48.024;8.774;2024-02-26T11:40:48;92177.50;;;13.72;47.02
51829;BME280;37881;48.024;8.774;2024-02-26T11:43:14;92180.72;;;13.56;48.34
51829;BME280;37881;48.024;8.774;2024-02-26T11:45:47;92174.28;;;13.59;47.03
51829;BME280;37881;48.024;8.774;2024-02-26T11:48:20;92170.44;;;13.71;46.87
51829;BME280;37881;48.024;8.774;2024-02-26T11:50:50;92166.78;;;13.30;47.20
51829;BME280;37881;48.024;8.774;2024-02-26T11:53:30;92162.09;;;13.66;46.62
51829;BME280;37881;48.024;8.774;2024-02-26T11:56:21;92163.88;;;14.60;46.04
51829;BME280;37881;48.024;8.774;2024-02-26T11:59:05;92170.94;;;13.25;49.21
51829;BME280;37881;48.024;8.774;2024-02-26T12:01:41;92169.28;;;13.93;48.71
51829;BME280;37881;48.024;8.774;2024-02-26T12:04:16;92166.22;;;13.41;46.96
51829;BME280;37881;48.024;8.774;2024-02-26T12:06:51;92165.09;;;12.25;50.27
51829;BME280;37881;48.024;8.774;2024-02-26T12:09:37;92172.63;;;12.15;46.86
51829;BME280;37881;48.024;8.774;2024-02-26T12:12:05;92169.09;;;12.77;47.86
51829;BME280;37881;48.024;8.774;2024-02-26T12:14:37;92172.44;;;12.43;47.31
51829;BME280;37881;48.024;8.774;2024-02-26T12:17:04;92181.25;;;11.32;50.81
51829;BME280;37881;48.024;8.774;2024-02-26T12:19:37;92178.44;;;10.98;48.59
51829;BME280;37881;48.024;8.774;2024-02-26T12:22:12;92184.84;;;10.95;47.84
51829;BME280;37881;48.024;8.774;2024-02-26T12:24:39;92186.19;;;11.09;46.46
51829;BME280;37881;48.024;8.774;2024-02-26T12:27:06;92189.44;;;11.50;45.72
51829;BME280;37881;48.024;8.774;2024-02-26T12:29:33;92189.59;;;11.89;45.04
51829;BME280;37881;48.024;8.774;2024-02-26T12:32:00;92190.31;;;11.56;45.40
51829;BME280;37881;48.024;8.774;2024-02-26T12:34:31;92197.72;;;11.74;45.70
51829;BME280;37881;48.024;8.774;2024-02-26T12:36:59;92196.53;;;11.24;45.56
51829;BME280;37881;48.024;8.774;2024-02-26T12:39:27;92195.34;;;11.58;45.44
51829;BME280;37881;48.024;8.774;2024-02-26T12:41:57;92189.91;;;11.82;45.34
51829;BME280;37881;48.024;8.774;2024-02-26T12:44:26;92182.25;;;12.19;43.71
51829;BME280;37881;48.024;8.774;2024-02-26T12:47:03;92180.53;;;12.22;43.28
51829;BME280;37881;48.024;8.774;2024-02-26T12:49:31;92179.34;;;12.77;43.07
51829;BME280;37881;48.024;8.774;2024-02-26T12:51:58;92177.28;;;12.87;43.22
51829;BME280;37881;48.024;8.774;2024-02-26T12:54:32;92180.69;;;12.82;43.50
51829;BME280;37881;48.024;8.774;2024-02-26T12:57:01;92189.22;;;12.69;43.44
51829;BME280;37881;48.024;8.774;2024-02-26T12:59:30;92195.53;;;12.99;42.84
51829;BME280;37881;48.024;8.774;2024-02-26T13:01:57;92196.91;;;12.41;44.17
51829;BME280;37881;48.024;8.774;2024-02-26T13:04:26;92192.31;;;12.23;44.70